sensor_id;sensor_type;location;lat;lon;timestamp;pressure;altitude;pressure_sealevel;temperature;humidity
10946;BME280;5525;42.648;23.368;2024-01-25T00:02:18;95287.25;;;3.38;100.00
10946;BME280;5525;42.648;23.368;2024-01-25T00:04:45;95284.38;;;3.70;100.00
10946;BME280;5525;42.648;23.368;2024-01-25T00:07:11;95287.06;;;3.75;100.00
10946;BME280;5525;42.648;23.368;2024-01-25T00:09:40;95273.16;;;3.63;100.00
10946;BME280;5525;42.648;23.368;2024-01-25T00:12:06;95276.09;;;3.72;100.00
10946;BME280;5525;42.648;23.368;2024-01-25T00:14:33;95264.63;;;3.76;100.00
10946;BME280;5525;42.648;23.368;2024-01-25T00:17:00;95247.78;;;3.91;100.00
10946;BME280;5525;42.648;23.368;2024-01-25T00:19:26;95223.22;;;3.89;100.00
10946;BME280;5525;42.648;23.368;2024-01-25T00:21:53;95205.59;;;3.73;100.00
10946;BME280;5525;42.648;23.368;2024-01-25T00:24:20;95185.84;;;3.74;100.00
10946;BME280;5525;42.648;23.368;2024-01-25T00:26:48;95175.44;;;3.67;100.00
10946;BME280;5525;42.648;23.368;2024-01-25T00:29:15;95166.34;;;3.68;100.00
10946;BME280;5525;42.648;23.368;2024-01-25T00:31:42;95150.59;;;3.67;100.00
10946;BME280;5525;42.648;23.368;2024-01-25T00:34:09;95155.13;;;3.71;100.00
10946;BME280;5525;42.648;23.368;2024-01-25T00:36:36;95183.97;;;3.64;100.00
10946;BME280;5525;42.648;23.368;2024-01-25T00:39:04;95181.03;;;3.56;100.00
10946;BME280;5525;42.648;23.368;2024-01-25T00:41:32;95179.19;;;3.56;100.00
10946;BME280;5525;42.648;23.368;2024-01-25T00:44:01;95170.09;;;3.57;100.00
10946;BME280;5525;42.648;23.368;2024-01-25T00:46:28;95158.34;;;3.48;100.00
10946;BME280;5525;42.648;23.368;2024-01-25T00:48:56;95142.34;;;3.58;100.00
10946;BME280;5525;42.648;23.368;2024-01-25T00:51:23;95155.97;;;3.57;100.00
10946;BME280;5525;42.648;23.368;2024-01-25T00:53:50;95149.25;;;3.54;100.00
10946;BME280;5525;42.648;23.368;2024-01-25T00:56:17;95143.41;;;3.27;100.00
10946;BME280;5525;42.648;23.368;2024-01-25T00:58:45;95163.16;;;3.31;100.00
10946;BME280;5525;42.648;23.368;2024-01-25T01:01:13;95181.03;;;3.35;100.00
10946;BME280;5525;42.648;23.368;2024-01-25T01:03:41;95182.63;;;3.41;100.00
10946;BME280;5525;42.648;23.368;2024-01-25T01:06:09;95189.06;;;3.45;100.00
10946;BME280;5525;42.648;23.368;2024-01-25T01:08:36;95192.25;;;3.42;100.00
10946;BME280;5525;42.648;23.368;2024-01-25T01:11:03;95188.50;;;3.38;100.00
10946;BME280;5525;42.648;23.368;2024-01-25T01:13:30;95181.56;;;3.47;100.00
10946;BME280;5525;42.648;23.368;2024-01-25T01:15:57;95169.00;;;3.28;100.00
10946;BME280;5525;42.648;23.368;2024-01-25T01:18:25;95155.69;;;3.48;100.00
10946;BME280;5525;42.648;23.368;2024-01-25T01:20:52;95157.03;;;3.51;100.00
10946;BME280;5525;42.648;23.368;2024-01-25T01:23:19;95135.66;;;3.35;100.00
10946;BME280;5525;42.648;23.368;2024-01-25T01:25:44;95132.47;;;3.33;100.00
10946;BME280;5525;42.648;23.368;2024-01-25T01:28:12;95115.38;;;3.29;100.00
10946;BME280;5525;42.648;23.368;2024-01-25T01:30:38;95106.31;;;3.25;100.00
10946;BME280;5525;42.648;23.368;2024-01-25T01:33:07;95121.25;;;3.26;100.00
10946;BME280;5525;42.648;23.368;2024-01-25T01:35:35;95124.19;;;3.35;100.00
10946;BME280;5525;42.648;23.368;2024-01-25T01:38:02;95113.50;;;3.50;100.00
10946;BME280;5525;42.648;23.368;2024-01-25T01:40:29;95111.88;;;3.54;100.00
10946;BME280;5525;42.648;23.368;2024-01-25T01:42:59;95107.91;;;3.57;100.00
10946;BME280;5525;42.648;23.368;2024-01-25T01:45:26;95098.81;;;3.63;100.00
10946;BME280;5525;42.648;23.368;2024-01-25T01:47:53;95101.75;;;3.61;100.00
10946;BME280;5525;42.648;23.368;2024-01-25T01:50:20;95091.31;;;3.75;100.00
10946;BME280;5525;42.648;23.368;2024-01-25T01:52:49;95089.94;;;3.77;100.00
10946;BME280;5525;42.648;23.368;2024-01-25T01:55:16;95087.00;;;3.84;100.00
10946;BME280;5525;42.648;23.368;2024-01-25T01:57:44;95080.56;;;3.90;100.00
10946;BME280;5525;42.648;23.368;2024-01-25T02:00:14;95077.91;;;3.90;100.00
10946;BME280;5525;42.648;23.368;2024-01-25T02:02:42;95075.72;;;3.97;100.00
10946;BME280;5525;42.648;23.368;2024-01-25T02:05:09;95080.03;;;3.98;100.00
10946;BME280;5525;42.648;23.368;2024-01-25T02:07:37;95079.44;;;4.11;100.00
10946;BME280;5525;42.648;23.368;2024-01-25T02:10:08;95070.91;;;4.04;100.00
10946;BME280;5525;42.648;23.368;2024-01-25T02:12:35;95064.75;;;4.13;100.00
10946;BME280;5525;42.648;23.368;2024-01-25T02:15:02;95062.63;;;4.10;100.00
10946;BME280;5525;42.648;23.368;2024-01-25T02:17:29;95063.94;;;4.08;100.00
10946;BME280;5525;42.648;23.368;2024-01-25T02:19:56;95084.28;;;3.99;100.00
10946;BME280;5525;42.648;23.368;2024-01-25T02:22:24;95079.47;;;4.01;100.00
10946;BME280;5525;42.648;23.368;2024-01-25T02:24:51;95070.09;;;4.13;100.00
10946;BME280;5525;42.648;23.368;2024-01-25T02:27:18;95077.63;;;4.01;100.00
10946;BME280;5525;42.648;23.368;2024-01-25T02:29:45;95062.91;;;4.04;100.00
10946;BME280;5525;42.648;23.368;2024-01-25T02:32:11;95063.38;;;4.16;100.00
10946;BME280;5525;42.648;23.368;2024-01-25T02:34:38;95040.22;;;4.01;100.00
10946;BME280;5525;42.648;23.368;2024-01-25T02:37:05;95057.81;;;4.07;100.00
10946;BME280;5525;42.648;23.368;2024-01-25T02:39:33;95039.59;;;4.19;100.00
10946;BME280;5525;42.648;23.368;2024-01-25T02:42:00;95052.13;;;4.19;100.00
10946;BME280;5525;42.648;23.368;2024-01-25T02:44:27;95048.31;;;4.35;100.00
10946;BME280;5525;42.648;23.368;2024-01-25T02:46:54;95044.56;;;4.36;100.00
10946;BME280;5525;42.648;23.368;2024-01-25T02:49:20;95046.75;;;4.29;100.00
10946;BME280;5525;42.648;23.368;2024-01-25T02:51:49;95041.16;;;4.20;100.00
10946;BME280;5525;42.648;23.368;2024-01-25T02:54:16;95049.25;;;4.10;100.00
10946;BME280;5525;42.648;23.368;2024-01-25T02:56:44;95045.84;;;4.00;100.00
10946;BME280;5525;42.648;23.368;2024-01-25T02:59:11;95047.72;;;3.89;100.00
10946;BME280;5525;42.648;23.368;2024-01-25T03:01:40;95043.72;;;3.87;100.00
10946;BME280;5525;42.648;23.368;2024-01-25T03:04:07;95050.91;;;3.96;100.00
10946;BME280;5525;42.648;23.368;2024-01-25T03:06:34;95058.09;;;4.06;100.00
10946;BME280;5525;42.648;23.368;2024-01-25T03:09:00;95053.56;;;3.96;100.00
10946;BME280;5525;42.648;23.368;2024-01-25T03:11:30;95049.56;;;3.94;100.00
10946;BME280;5525;42.648;23.368;2024-01-25T03:13:58;95039.97;;;3.88;100.00
10946;BME280;5525;42.648;23.368;2024-01-25T03:16:25;95052.75;;;4.06;100.00
10946;BME280;5525;42.648;23.368;2024-01-25T03:18:52;95033.19;;;4.15;100.00
10946;BME280;5525;42.648;23.368;2024-01-25T03:21:19;95052.06;;;5.45;100.00
10946;BME280;5525;42.648;23.368;2024-01-25T03:23:46;95022.78;;;6.05;100.00
10946;BME280;5525;42.648;23.368;2024-01-25T03:26:12;95028.41;;;6.64;100.00
10946;BME280;5525;42.648;23.368;2024-01-25T03:28:39;95025.06;;;6.91;100.00
10946;BME280;5525;42.648;23.368;2024-01-25T03:31:07;95017.56;;;7.07;100.00
10946;BME280;5525;42.648;23.368;2024-01-25T03:33:34;95030.53;;;7.18;100.00
10946;BME280;5525;42.648;23.368;2024-01-25T03:36:02;95044.19;;;7.22;100.00
10946;BME280;5525;42.648;23.368;2024-01-25T03:38:29;95039.63;;;7.22;100.00
10946;BME280;5525;42.648;23.368;2024-01-25T03:40:56;95033.31;;;7.13;100.00
10946;BME280;5525;42.648;23.368;2024-01-25T03:43:24;95013.53;;;7.23;100.00
10946;BME280;5525;42.648;23.368;2024-01-25T03:45:51;94996.50;;;7.14;100.00
10946;BME280;5525;42.648;23.368;2024-01-25T03:48:18;94994.41;;;7.11;100.00
10946;BME280;5525;42.648;23.368;2024-01-25T03:50:45;94999.69;;;7.16;100.00
10946;BME280;5525;42.648;23.368;2024-01-25T03:53:11;94997.41;;;7.23;100.00
10946;BME280;5525;42.648;23.368;2024-01-25T03:55:38;94999.13;;;7.19;100.00
10946;BME280;5525;42.648;23.368;2024-01-25T03:58:05;94996.81;;;7.12;100.00
10946;BME280;5525;42.648;23.368;2024-01-25T04:00:32;94972.78;;;7.21;100.00
10946;BME280;5525;42.648;23.368;2024-01-25T04:02:59;94968.00;;;7.31;100.00
10946;BME280;5525;42.648;23.368;2024-01-25T04:05:27;94988.28;;;7.24;100.00
10946;BME280;5525;42.648;23.368;2024-01-25T04:07:54;94968.78;;;7.18;100.00
10946;BME280;5525;42.648;23.368;2024-01-25T04:10:20;94974.09;;;7.05;100.00
10946;BME280;5525;42.648;23.368;2024-01-25T04:12:47;94977.69;;;7.00;100.00
10946;BME280;5525;42.648;23.368;2024-01-25T04:15:14;94966.88;;;7.05;100.00
10946;BME280;5525;42.648;23.368;2024-01-25T04:17:41;94968.75;;;7.05;100.00
10946;BME280;5525;42.648;23.368;2024-01-25T04:20:08;94980.22;;;7.10;100.00
10946;BME280;5525;42.648;23.368;2024-01-25T04:22:36;94973.53;;;7.08;100.00
10946;BME280;5525;42.648;23.368;2024-01-25T04:25:04;94964.28;;;7.14;100.00
10946;BME280;5525;42.648;23.368;2024-01-25T04:27:31;94974.66;;;7.20;100.00
10946;BME280;5525;42.648;23.368;2024-01-25T04:29:57;94966.13;;;7.32;100.00
10946;BME280;5525;42.648;23.368;2024-01-25T04:32:24;94980.34;;;7.32;100.00
10946;BME280;5525;42.648;23.368;2024-01-25T04:34:51;94970.50;;;7.28;100.00
10946;BME280;5525;42.648;23.368;2024-01-25T04:37:18;94974.50;;;7.30;100.00
10946;BME280;5525;42.648;23.368;2024-01-25T04:39:46;94968.47;;;7.20;100.00
10946;BME280;5525;42.648;23.368;2024-01-25T04:42:13;94971.72;;;7.03;100.00
10946;BME280;5525;42.648;23.368;2024-01-25T04:44:40;94985.06;;;7.08;100.00
10946;BME280;5525;42.648;23.368;2024-01-25T04:47:06;94988.19;;;6.97;100.00
10946;BME280;5525;42.648;23.368;2024-01-25T04:49:33;94985.91;;;6.90;100.00
10946;BME280;5525;42.648;23.368;2024-01-25T04:52:00;95003.19;;;6.84;100.00
10946;BME280;5525;42.648;23.368;2024-01-25T04:54:27;94996.50;;;6.63;100.00
10946;BME280;5525;42.648;23.368;2024-01-25T04:56:55;95000.94;;;6.54;100.00
10946;BME280;5525;42.648;23.368;2024-01-25T04:59:22;94997.81;;;6.28;100.00
10946;BME280;5525;42.648;23.368;2024-01-25T05:01:49;95003.53;;;6.22;100.00
10946;BME280;5525;42.648;23.368;2024-01-25T05:04:17;95011.13;;;6.15;100.00
10946;BME280;5525;42.648;23.368;2024-01-25T05:06:43;95010.53;;;5.99;100.00
10946;BME280;5525;42.648;23.368;2024-01-25T05:09:11;95026.09;;;5.97;100.00
10946;BME280;5525;42.648;23.368;2024-01-25T05:11:38;95034.56;;;5.81;100.00
10946;BME280;5525;42.648;23.368;2024-01-25T05:14:07;95034.16;;;5.69;100.00
10946;BME280;5525;42.648;23.368;2024-01-25T05:16:34;95012.16;;;5.72;100.00
10946;BME280;5525;42.648;23.368;2024-01-25T05:19:01;95049.88;;;5.75;100.00
10946;BME280;5525;42.648;23.368;2024-01-25T05:21:28;95040.00;;;5.71;100.00
10946;BME280;5525;42.648;23.368;2024-01-25T05:23:55;95060.00;;;5.78;100.00
10946;BME280;5525;42.648;23.368;2024-01-25T05:26:21;95063.72;;;5.87;100.00
10946;BME280;5525;42.648;23.368;2024-01-25T05:28:48;95055.84;;;6.19;100.00
10946;BME280;5525;42.648;23.368;2024-01-25T05:31:17;95049.50;;;6.52;100.00
10946;BME280;5525;42.648;23.368;2024-01-25T05:33:43;95062.50;;;6.64;100.00
10946;BME280;5525;42.648;23.368;2024-01-25T05:36:10;95064.53;;;6.72;100.00
10946;BME280;5525;42.648;23.368;2024-01-25T05:38:37;95062.50;;;6.64;100.00
10946;BME280;5525;42.648;23.368;2024-01-25T05:41:04;95057.06;;;6.69;100.00
10946;BME280;5525;42.648;23.368;2024-01-25T05:43:31;95062.81;;;6.62;100.00
10946;BME280;5525;42.648;23.368;2024-01-25T05:45:58;95070.41;;;6.74;100.00
10946;BME280;5525;42.648;23.368;2024-01-25T05:48:27;95068.00;;;6.72;100.00
10946;BME280;5525;42.648;23.368;2024-01-25T05:50:53;95077.88;;;6.77;100.00
10946;BME280;5525;42.648;23.368;2024-01-25T05:53:20;95081.38;;;6.77;100.00
10946;BME280;5525;42.648;23.368;2024-01-25T05:55:47;95087.69;;;6.86;100.00
10946;BME280;5525;42.648;23.368;2024-01-25T05:58:14;95082.88;;;6.83;100.00
10946;BME280;5525;42.648;23.368;2024-01-25T06:00:42;95063.00;;;7.03;100.00
10946;BME280;5525;42.648;23.368;2024-01-25T06:03:09;95079.69;;;7.00;100.00
10946;BME280;5525;42.648;23.368;2024-01-25T06:05:37;95076.72;;;7.02;100.00
10946;BME280;5525;42.648;23.368;2024-01-25T06:08:04;95083.19;;;7.01;100.00
10946;BME280;5525;42.648;23.368;2024-01-25T06:10:33;95088.09;;;6.93;100.00
10946;BME280;5525;42.648;23.368;2024-01-25T06:13:00;95086.97;;;6.81;100.00
10946;BME280;5525;42.648;23.368;2024-01-25T06:15:27;95099.34;;;6.77;100.00
10946;BME280;5525;42.648;23.368;2024-01-25T06:17:54;95105.94;;;6.84;100.00
10946;BME280;5525;42.648;23.368;2024-01-25T06:20:20;95111.41;;;6.79;100.00
10946;BME280;5525;42.648;23.368;2024-01-25T06:22:49;95105.16;;;6.84;100.00
10946;BME280;5525;42.648;23.368;2024-01-25T06:25:15;95102.84;;;6.77;100.00
10946;BME280;5525;42.648;23.368;2024-01-25T06:27:42;95095.13;;;6.71;100.00
10946;BME280;5525;42.648;23.368;2024-01-25T06:30:10;95089.94;;;6.79;100.00
10946;BME280;5525;42.648;23.368;2024-01-25T06:32:37;95099.28;;;6.82;100.00
10946;BME280;5525;42.648;23.368;2024-01-25T06:35:04;95098.41;;;6.86;100.00
10946;BME280;5525;42.648;23.368;2024-01-25T06:37:31;95092.25;;;6.86;100.00
10946;BME280;5525;42.648;23.368;2024-01-25T06:39:59;95079.34;;;6.88;100.00
10946;BME280;5525;42.648;23.368;2024-01-25T06:42:26;95069.81;;;6.96;100.00
10946;BME280;5525;42.648;23.368;2024-01-25T06:44:53;95075.25;;;6.90;100.00
10946;BME280;5525;42.648;23.368;2024-01-25T06:47:21;95076.06;;;6.91;100.00
10946;BME280;5525;42.648;23.368;2024-01-25T06:49:47;95087.31;;;6.93;100.00
10946;BME280;5525;42.648;23.368;2024-01-25T06:52:17;95081.50;;;6.86;100.00
10946;BME280;5525;42.648;23.368;2024-01-25T06:54:44;95085.22;;;6.90;100.00
10946;BME280;5525;42.648;23.368;2024-01-25T06:57:12;95077.16;;;6.90;100.00
10946;BME280;5525;42.648;23.368;2024-01-25T06:59:40;95066.91;;;6.92;100.00
10946;BME280;5525;42.648;23.368;2024-01-25T07:02:07;95068.25;;;6.95;100.00
10946;BME280;5525;42.648;23.368;2024-01-25T07:04:34;95061.19;;;6.99;100.00
10946;BME280;5525;42.648;23.368;2024-01-25T07:07:01;95064.22;;;6.92;100.00
10946;BME280;5525;42.648;23.368;2024-01-25T07:09:28;95050.09;;;6.86;100.00
10946;BME280;5525;42.648;23.368;2024-01-25T07:11:54;95061.56;;;6.92;100.00
10946;BME280;5525;42.648;23.368;2024-01-25T07:14:23;95061.78;;;6.96;100.00
10946;BME280;5525;42.648;23.368;2024-01-25T07:16:50;95064.03;;;7.07;100.00
10946;BME280;5525;42.648;23.368;2024-01-25T07:19:17;95062.50;;;7.01;100.00
10946;BME280;5525;42.648;23.368;2024-01-25T07:21:44;95059.81;;;7.01;100.00
10946;BME280;5525;42.648;23.368;2024-01-25T07:24:11;95061.41;;;7.02;100.00
10946;BME280;5525;42.648;23.368;2024-01-25T07:26:38;95066.41;;;7.09;100.00
10946;BME280;5525;42.648;23.368;2024-01-25T07:29:05;95067.19;;;7.09;100.00
10946;BME280;5525;42.648;23.368;2024-01-25T07:31:32;95093.28;;;7.09;100.00
10946;BME280;5525;42.648;23.368;2024-01-25T07:33:59;95085.06;;;7.00;100.00
10946;BME280;5525;42.648;23.368;2024-01-25T07:36:27;95096.84;;;7.04;100.00
10946;BME280;5525;42.648;23.368;2024-01-25T07:38:53;95102.50;;;7.03;100.00
10946;BME280;5525;42.648;23.368;2024-01-25T07:41:20;95093.13;;;7.00;100.00
10946;BME280;5525;42.648;23.368;2024-01-25T07:43:47;95081.31;;;7.01;100.00
10946;BME280;5525;42.648;23.368;2024-01-25T07:46:14;95102.09;;;7.09;100.00
10946;BME280;5525;42.648;23.368;2024-01-25T07:48:42;95104.44;;;7.16;100.00
10946;BME280;5525;42.648;23.368;2024-01-25T07:51:13;95126.91;;;7.20;100.00
10946;BME280;5525;42.648;23.368;2024-01-25T07:53:40;95128.59;;;7.16;100.00
10946;BME280;5525;42.648;23.368;2024-01-25T07:56:07;95110.69;;;7.11;100.00
10946;BME280;5525;42.648;23.368;2024-01-25T07:58:35;95099.41;;;7.09;100.00
10946;BME280;5525;42.648;23.368;2024-01-25T08:01:03;95119.72;;;7.15;100.00
10946;BME280;5525;42.648;23.368;2024-01-25T08:03:31;95131.69;;;7.41;100.00
10946;BME280;5525;42.648;23.368;2024-01-25T08:06:01;95120.59;;;7.48;100.00
10946;BME280;5525;42.648;23.368;2024-01-25T08:08:28;95128.06;;;7.51;100.00
10946;BME280;5525;42.648;23.368;2024-01-25T08:10:55;95120.81;;;7.51;100.00
10946;BME280;5525;42.648;23.368;2024-01-25T08:13:22;95110.78;;;7.38;100.00
10946;BME280;5525;42.648;23.368;2024-01-25T08:15:49;95124.38;;;7.47;100.00
10946;BME280;5525;42.648;23.368;2024-01-25T08:18:16;95121.38;;;7.48;100.00
10946;BME280;5525;42.648;23.368;2024-01-25T08:20:44;95118.69;;;7.48;100.00
10946;BME280;5525;42.648;23.368;2024-01-25T08:23:13;95127.81;;;7.66;100.00
10946;BME280;5525;42.648;23.368;2024-01-25T08:25:40;95127.44;;;7.72;100.00
10946;BME280;5525;42.648;23.368;2024-01-25T08:28:07;95135.75;;;7.89;100.00
10946;BME280;5525;42.648;23.368;2024-01-25T08:30:34;95121.72;;;7.92;100.00
10946;BME280;5525;42.648;23.368;2024-01-25T08:33:01;95128.28;;;8.00;100.00
10946;BME280;5525;42.648;23.368;2024-01-25T08:35:28;95120.59;;;7.93;100.00
10946;BME280;5525;42.648;23.368;2024-01-25T08:37:56;95129.50;;;8.07;100.00
10946;BME280;5525;42.648;23.368;2024-01-25T08:40:24;95130.00;;;8.09;100.00
10946;BME280;5525;42.648;23.368;2024-01-25T08:42:50;95141.25;;;7.98;100.00
10946;BME280;5525;42.648;23.368;2024-01-25T08:45:17;95129.47;;;7.94;100.00
10946;BME280;5525;42.648;23.368;2024-01-25T08:47:44;95136.84;;;7.88;100.00
10946;BME280;5525;42.648;23.368;2024-01-25T08:50:11;95143.81;;;7.89;100.00
10946;BME280;5525;42.648;23.368;2024-01-25T08:52:38;95134.31;;;7.78;100.00
10946;BME280;5525;42.648;23.368;2024-01-25T08:55:07;95125.66;;;7.81;100.00
10946;BME280;5525;42.648;23.368;2024-01-25T08:57:36;95143.09;;;7.84;100.00
10946;BME280;5525;42.648;23.368;2024-01-25T09:00:06;95141.13;;;8.03;100.00
10946;BME280;5525;42.648;23.368;2024-01-25T09:02:35;95147.25;;;8.22;100.00
10946;BME280;5525;42.648;23.368;2024-01-25T09:05:03;95136.03;;;8.33;100.00
10946;BME280;5525;42.648;23.368;2024-01-25T09:07:30;95140.50;;;8.38;100.00
10946;BME280;5525;42.648;23.368;2024-01-25T09:09:56;95131.41;;;8.20;100.00
10946;BME280;5525;42.648;23.368;2024-01-25T09:12:24;95146.94;;;8.10;100.00
10946;BME280;5525;42.648;23.368;2024-01-25T09:14:52;95131.81;;;8.14;100.00
10946;BME280;5525;42.648;23.368;2024-01-25T09:17:19;95133.63;;;8.32;100.00
10946;BME280;5525;42.648;23.368;2024-01-25T09:19:48;95126.19;;;8.70;100.00
10946;BME280;5525;42.648;23.368;2024-01-25T09:22:15;95136.75;;;8.66;100.00
10946;BME280;5525;42.648;23.368;2024-01-25T09:24:42;95128.16;;;8.50;100.00
10946;BME280;5525;42.648;23.368;2024-01-25T09:27:09;95137.72;;;8.56;100.00
10946;BME280;5525;42.648;23.368;2024-01-25T09:29:36;95132.47;;;8.51;100.00
10946;BME280;5525;42.648;23.368;2024-01-25T09:32:06;95108.75;;;8.40;100.00
10946;BME280;5525;42.648;23.368;2024-01-25T09:34:34;95121.59;;;8.43;100.00
10946;BME280;5525;42.648;23.368;2024-01-25T09:37:01;95110.75;;;8.48;100.00
10946;BME280;5525;42.648;23.368;2024-01-25T09:39:27;95113.13;;;8.49;100.00
10946;BME280;5525;42.648;23.368;2024-01-25T09:41:54;95120.00;;;8.42;100.00
10946;BME280;5525;42.648;23.368;2024-01-25T09:44:21;95109.44;;;8.59;100.00
10946;BME280;5525;42.648;23.368;2024-01-25T09:46:48;95105.25;;;8.67;100.00
10946;BME280;5525;42.648;23.368;2024-01-25T09:49:16;95098.03;;;8.89;100.00
10946;BME280;5525;42.648;23.368;2024-01-25T09:51:43;95110.09;;;8.92;100.00
10946;BME280;5525;42.648;23.368;2024-01-25T09:54:10;95090.91;;;9.07;100.00
10946;BME280;5525;42.648;23.368;2024-01-25T09:56:41;95093.81;;;8.97;100.00
10946;BME280;5525;42.648;23.368;2024-01-25T09:59:09;95098.78;;;9.03;100.00
10946;BME280;5525;42.648;23.368;2024-01-25T10:01:37;95094.59;;;9.11;100.00
10946;BME280;5525;42.648;23.368;2024-01-25T10:04:06;95084.06;;;9.23;100.00
10946;BME280;5525;42.648;23.368;2024-01-25T10:06:34;95083.25;;;9.00;100.00
10946;BME280;5525;42.648;23.368;2024-01-25T10:09:01;95086.59;;;9.06;100.00
10946;BME280;5525;42.648;23.368;2024-01-25T10:11:28;95077.03;;;8.78;100.00
10946;BME280;5525;42.648;23.368;2024-01-25T10:14:01;95064.16;;;8.61;100.00
10946;BME280;5525;42.648;23.368;2024-01-25T10:16:29;95055.94;;;9.15;100.00
10946;BME280;5525;42.648;23.368;2024-01-25T10:18:56;95063.38;;;9.10;100.00
10946;BME280;5525;42.648;23.368;2024-01-25T10:21:23;95056.75;;;9.16;100.00
10946;BME280;5525;42.648;23.368;2024-01-25T10:23:51;95051.91;;;8.69;100.00
10946;BME280;5525;42.648;23.368;2024-01-25T10:26:20;95048.69;;;8.80;100.00
10946;BME280;5525;42.648;23.368;2024-01-25T10:28:55;95046.44;;;8.96;100.00
10946;BME280;5525;42.648;23.368;2024-01-25T10:31:23;95049.72;;;9.28;100.00
10946;BME280;5525;42.648;23.368;2024-01-25T10:33:52;95039.13;;;9.10;100.00
10946;BME280;5525;42.648;23.368;2024-01-25T10:36:20;95040.84;;;9.28;100.00
10946;BME280;5525;42.648;23.368;2024-01-25T10:38:49;95034.91;;;9.17;100.00
10946;BME280;5525;42.648;23.368;2024-01-25T10:41:20;95032.94;;;9.09;100.00
10946;BME280;5525;42.648;23.368;2024-01-25T10:43:48;95040.75;;;8.97;100.00
10946;BME280;5525;42.648;23.368;2024-01-25T10:46:16;95047.38;;;8.91;100.00
10946;BME280;5525;42.648;23.368;2024-01-25T10:48:43;95034.00;;;8.86;100.00
10946;BME280;5525;42.648;23.368;2024-01-25T10:51:10;95015.66;;;8.88;100.00
10946;BME280;5525;42.648;23.368;2024-01-25T10:53:39;95025.75;;;9.05;100.00
10946;BME280;5525;42.648;23.368;2024-01-25T10:56:08;95033.84;;;9.05;100.00
10946;BME280;5525;42.648;23.368;2024-01-25T10:58:42;95026.53;;;9.41;100.00
10946;BME280;5525;42.648;23.368;2024-01-25T11:01:10;95015.44;;;9.42;100.00
10946;BME280;5525;42.648;23.368;2024-01-25T11:03:39;95028.84;;;9.34;100.00
10946;BME280;5525;42.648;23.368;2024-01-25T11:06:07;95025.53;;;9.37;100.00
10946;BME280;5525;42.648;23.368;2024-01-25T11:08:35;95031.59;;;9.42;98.87
10946;BME280;5525;42.648;23.368;2024-01-25T11:11:05;95022.16;;;9.84;96.71
10946;BME280;5525;42.648;23.368;2024-01-25T11:13:33;95013.63;;;9.60;92.44
10946;BME280;5525;42.648;23.368;2024-01-25T11:16:11;94998.47;;;9.20;95.43
10946;BME280;5525;42.648;23.368;2024-01-25T11:18:47;95000.13;;;9.29;94.60
10946;BME280;5525;42.648;23.368;2024-01-25T11:21:22;94999.69;;;9.36;96.92
10946;BME280;5525;42.648;23.368;2024-01-25T11:23:49;94986.13;;;9.49;95.13
10946;BME280;5525;42.648;23.368;2024-01-25T11:26:25;94980.22;;;9.69;93.85
10946;BME280;5525;42.648;23.368;2024-01-25T11:28:53;94973.47;;;9.28;96.07
10946;BME280;5525;42.648;23.368;2024-01-25T11:31:22;94996.78;;;9.10;97.16
10946;BME280;5525;42.648;23.368;2024-01-25T11:33:50;94987.75;;;9.06;98.02
10946;BME280;5525;42.648;23.368;2024-01-25T11:36:20;94995.63;;;8.81;99.82
10946;BME280;5525;42.648;23.368;2024-01-25T11:38:48;94989.25;;;8.77;100.00
10946;BME280;5525;42.648;23.368;2024-01-25T11:41:15;94981.75;;;8.51;100.00
10946;BME280;5525;42.648;23.368;2024-01-25T11:43:45;94985.31;;;8.25;100.00
10946;BME280;5525;42.648;23.368;2024-01-25T11:46:12;94988.66;;;8.17;100.00
10946;BME280;5525;42.648;23.368;2024-01-25T11:48:41;94976.91;;;8.13;100.00
10946;BME280;5525;42.648;23.368;2024-01-25T11:51:09;94993.84;;;8.00;100.00
10946;BME280;5525;42.648;23.368;2024-01-25T11:53:36;94991.88;;;8.05;100.00
10946;BME280;5525;42.648;23.368;2024-01-25T11:56:05;94986.06;;;8.12;100.00
10946;BME280;5525;42.648;23.368;2024-01-25T11:58:33;94979.91;;;8.11;100.00
10946;BME280;5525;42.648;23.368;2024-01-25T12:01:00;94973.22;;;8.09;100.00
10946;BME280;5525;42.648;23.368;2024-01-25T12:03:30;94977.50;;;8.37;100.00
10946;BME280;5525;42.648;23.368;2024-01-25T12:05:58;94988.06;;;8.47;100.00
10946;BME280;5525;42.648;23.368;2024-01-25T12:08:25;94989.75;;;8.43;100.00
10946;BME280;5525;42.648;23.368;2024-01-25T12:11:02;94989.47;;;8.31;100.00
10946;BME280;5525;42.648;23.368;2024-01-25T12:13:32;94995.16;;;8.16;100.00
10946;BME280;5525;42.648;23.368;2024-01-25T12:15:59;94983.72;;;8.24;100.00
10946;BME280;5525;42.648;23.368;2024-01-25T12:18:27;94977.91;;;8.30;99.55
10946;BME280;5525;42.648;23.368;2024-01-25T12:20:54;94961.47;;;8.32;99.93
10946;BME280;5525;42.648;23.368;2024-01-25T12:23:23;94976.53;;;8.33;99.05
10946;BME280;5525;42.648;23.368;2024-01-25T12:25:59;94956.69;;;8.29;98.77
10946;BME280;5525;42.648;23.368;2024-01-25T12:28:26;94976.03;;;8.31;99.02
10946;BME280;5525;42.648;23.368;2024-01-25T12:30:53;94953.78;;;8.39;98.48
10946;BME280;5525;42.648;23.368;2024-01-25T12:33:19;94946.47;;;8.75;96.81
10946;BME280;5525;42.648;23.368;2024-01-25T12:35:46;94945.06;;;9.00;94.15
10946;BME280;5525;42.648;23.368;2024-01-25T12:38:13;94924.03;;;9.02;92.57
10946;BME280;5525;42.648;23.368;2024-01-25T12:40:43;94909.25;;;9.21;92.17
10946;BME280;5525;42.648;23.368;2024-01-25T12:43:09;94929.72;;;10.00;90.42
10946;BME280;5525;42.648;23.368;2024-01-25T12:45:36;94916.78;;;10.96;83.06
10946;BME280;5525;42.648;23.368;2024-01-25T12:48:05;94909.22;;;11.44;78.23
10946;BME280;5525;42.648;23.368;2024-01-25T12:50:33;94908.22;;;11.11;78.72
10946;BME280;5525;42.648;23.368;2024-01-25T12:53:00;94917.44;;;10.85;78.62
10946;BME280;5525;42.648;23.368;2024-01-25T12:55:27;94896.53;;;11.36;77.11
10946;BME280;5525;42.648;23.368;2024-01-25T12:57:56;94892.50;;;10.88;76.99
10946;BME280;5525;42.648;23.368;2024-01-25T13:00:23;94883.75;;;11.54;74.53
10946;BME280;5525;42.648;23.368;2024-01-25T13:02:50;94875.63;;;11.62;74.05